sensor_id;sensor_type;location;lat;lon;timestamp;pressure;altitude;pressure_sealevel;temperature;humidity
68807;BME280;55800;54.272;18.558;2024-03-07T00:01:50;102344.41;;;-0.11;73.35
68807;BME280;55800;54.272;18.558;2024-03-07T00:04:20;102334.66;;;-0.15;73.77
68807;BME280;55800;54.272;18.558;2024-03-07T00:06:49;102337.22;;;-0.17;73.87
68807;BME280;55800;54.272;18.558;2024-03-07T00:09:19;102341.53;;;-0.19;73.61
68807;BME280;55800;54.272;18.558;2024-03-07T00:11:52;102343.22;;;-0.21;73.58
68807;BME280;55800;54.272;18.558;2024-03-07T00:14:22;102333.50;;;-0.23;73.55
68807;BME280;55800;54.272;18.558;2024-03-07T00:16:57;102337.84;;;-0.25;73.40
68807;BME280;55800;54.272;18.558;2024-03-07T00:19:27;102331.66;;;-0.27;73.50
68807;BME280;55800;54.272;18.558;2024-03-07T00:21:58;102337.66;;;-0.31;73.64
68807;BME280;55800;54.272;18.558;2024-03-07T00:24:27;102346.47;;;-0.29;73.65
68807;BME280;55800;54.272;18.558;2024-03-07T00:26:57;102337.63;;;-0.33;73.34
68807;BME280;55800;54.272;18.558;2024-03-07T00:29:26;102337.44;;;-0.39;73.41
68807;BME280;55800;54.272;18.558;2024-03-07T00:31:58;102335.63;;;-0.41;73.33
68807;BME280;55800;54.272;18.558;2024-03-07T00:34:27;102341.69;;;-0.42;73.45
68807;BME280;55800;54.272;18.558;2024-03-07T00:36:57;102337.28;;;-0.45;73.50
68807;BME280;55800;54.272;18.558;2024-03-07T00:39:27;102338.06;;;-0.47;74.02
68807;BME280;55800;54.272;18.558;2024-03-07T00:41:57;102327.53;;;-0.49;73.59
68807;BME280;55800;54.272;18.558;2024-03-07T00:44:26;102330.94;;;-0.51;73.47
68807;BME280;55800;54.272;18.558;2024-03-07T00:46:57;102330.88;;;-0.53;73.38
68807;BME280;55800;54.272;18.558;2024-03-07T00:49:26;102336.94;;;-0.55;73.30
68807;BME280;55800;54.272;18.558;2024-03-07T00:51:57;102340.38;;;-0.58;73.42
68807;BME280;55800;54.272;18.558;2024-03-07T00:54:26;102342.13;;;-0.57;73.40
68807;BME280;55800;54.272;18.558;2024-03-07T00:56:56;102334.97;;;-0.62;73.28
68807;BME280;55800;54.272;18.558;2024-03-07T00:59:25;102340.97;;;-0.66;73.32
68807;BME280;55800;54.272;18.558;2024-03-07T01:01:55;102342.59;;;-0.70;73.44
68807;BME280;55800;54.272;18.558;2024-03-07T01:04:25;102336.41;;;-0.72;73.44
68807;BME280;55800;54.272;18.558;2024-03-07T01:06:59;102337.25;;;-0.73;73.36
68807;BME280;55800;54.272;18.558;2024-03-07T01:09:29;102339.84;;;-0.74;73.30
68807;BME280;55800;54.272;18.558;2024-03-07T01:11:58;102331.13;;;-0.73;73.41
68807;BME280;55800;54.272;18.558;2024-03-07T01:14:28;102334.44;;;-0.79;73.32
68807;BME280;55800;54.272;18.558;2024-03-07T01:16:59;102335.09;;;-0.86;73.45
68807;BME280;55800;54.272;18.558;2024-03-07T01:19:30;102330.63;;;-0.89;73.65
68807;BME280;55800;54.272;18.558;2024-03-07T01:22:00;102327.97;;;-0.90;73.61
68807;BME280;55800;54.272;18.558;2024-03-07T01:24:30;102326.16;;;-0.91;73.53
68807;BME280;55800;54.272;18.558;2024-03-07T01:27:01;102334.78;;;-0.95;74.42
68807;BME280;55800;54.272;18.558;2024-03-07T01:29:31;102325.22;;;-0.93;73.71
68807;BME280;55800;54.272;18.558;2024-03-07T01:32:01;102322.56;;;-0.95;74.32
68807;BME280;55800;54.272;18.558;2024-03-07T01:34:32;102326.91;;;-0.95;73.64
68807;BME280;55800;54.272;18.558;2024-03-07T01:37:02;102332.84;;;-1.02;74.40
68807;BME280;55800;54.272;18.558;2024-03-07T01:39:35;102324.97;;;-1.02;74.04
68807;BME280;55800;54.272;18.558;2024-03-07T01:42:05;102333.63;;;-1.05;74.28
68807;BME280;55800;54.272;18.558;2024-03-07T01:44:36;102328.41;;;-1.03;73.84
68807;BME280;55800;54.272;18.558;2024-03-07T01:47:05;102328.34;;;-1.06;73.79
68807;BME280;55800;54.272;18.558;2024-03-07T01:49:36;102319.56;;;-1.07;73.69
68807;BME280;55800;54.272;18.558;2024-03-07T01:52:07;102318.50;;;-1.12;74.11
68807;BME280;55800;54.272;18.558;2024-03-07T01:54:37;102324.66;;;-1.11;74.19
68807;BME280;55800;54.272;18.558;2024-03-07T01:57:06;102314.94;;;-1.14;74.47
68807;BME280;55800;54.272;18.558;2024-03-07T01:59:36;102318.44;;;-1.15;74.04
68807;BME280;55800;54.272;18.558;2024-03-07T02:02:07;102317.50;;;-1.17;74.10
68807;BME280;55800;54.272;18.558;2024-03-07T02:04:37;102320.91;;;-1.19;74.33
68807;BME280;55800;54.272;18.558;2024-03-07T02:07:07;102324.34;;;-1.20;74.79
68807;BME280;55800;54.272;18.558;2024-03-07T02:09:39;102325.13;;;-1.23;74.83
68807;BME280;55800;54.272;18.558;2024-03-07T02:12:09;102324.25;;;-1.23;74.55
68807;BME280;55800;54.272;18.558;2024-03-07T02:14:38;102320.75;;;-1.24;74.52
68807;BME280;55800;54.272;18.558;2024-03-07T02:17:08;102327.63;;;-1.27;74.58
68807;BME280;55800;54.272;18.558;2024-03-07T02:19:39;102313.53;;;-1.29;74.19
68807;BME280;55800;54.272;18.558;2024-03-07T02:22:10;102310.91;;;-1.29;74.03
68807;BME280;55800;54.272;18.558;2024-03-07T02:24:39;102319.59;;;-1.32;74.34
68807;BME280;55800;54.272;18.558;2024-03-07T02:27:09;102313.41;;;-1.34;74.33
68807;BME280;55800;54.272;18.558;2024-03-07T02:29:38;102317.72;;;-1.36;75.60
68807;BME280;55800;54.272;18.558;2024-03-07T02:32:08;102319.50;;;-1.35;75.07
68807;BME280;55800;54.272;18.558;2024-03-07T02:34:37;102314.09;;;-1.39;75.30
68807;BME280;55800;54.272;18.558;2024-03-07T02:37:08;102313.16;;;-1.41;76.94
68807;BME280;55800;54.272;18.558;2024-03-07T02:39:38;102318.38;;;-1.41;76.24
68807;BME280;55800;54.272;18.558;2024-03-07T02:42:08;102315.69;;;-1.44;75.86
68807;BME280;55800;54.272;18.558;2024-03-07T02:44:37;102312.19;;;-1.43;75.21
68807;BME280;55800;54.272;18.558;2024-03-07T02:47:08;102313.06;;;-1.44;74.72
68807;BME280;55800;54.272;18.558;2024-03-07T02:49:37;102305.97;;;-1.47;75.21
68807;BME280;55800;54.272;18.558;2024-03-07T02:52:08;102311.19;;;-1.48;74.62
68807;BME280;55800;54.272;18.558;2024-03-07T02:54:38;102310.16;;;-1.52;74.62
68807;BME280;55800;54.272;18.558;2024-03-07T02:57:08;102308.41;;;-1.53;74.81
68807;BME280;55800;54.272;18.558;2024-03-07T02:59:39;102310.94;;;-1.54;75.91
68807;BME280;55800;54.272;18.558;2024-03-07T03:02:09;102307.47;;;-1.55;75.79
68807;BME280;55800;54.272;18.558;2024-03-07T03:04:38;102308.28;;;-1.56;75.29
68807;BME280;55800;54.272;18.558;2024-03-07T03:07:09;102309.06;;;-1.59;75.12
68807;BME280;55800;54.272;18.558;2024-03-07T03:09:39;102311.69;;;-1.59;76.02
68807;BME280;55800;54.272;18.558;2024-03-07T03:12:11;102316.09;;;-1.58;77.04
68807;BME280;55800;54.272;18.558;2024-03-07T03:14:40;102312.53;;;-1.60;77.80
68807;BME280;55800;54.272;18.558;2024-03-07T03:17:11;102310.75;;;-1.61;77.49
68807;BME280;55800;54.272;18.558;2024-03-07T03:19:42;102308.13;;;-1.61;75.87
68807;BME280;55800;54.272;18.558;2024-03-07T03:22:13;102319.47;;;-1.62;75.65
68807;BME280;55800;54.272;18.558;2024-03-07T03:24:42;102317.66;;;-1.63;75.56
68807;BME280;55800;54.272;18.558;2024-03-07T03:27:12;102312.41;;;-1.63;76.71
68807;BME280;55800;54.272;18.558;2024-03-07T03:29:41;102314.09;;;-1.65;75.68
68807;BME280;55800;54.272;18.558;2024-03-07T03:36:51;102314.00;;;-1.68;75.33
68807;BME280;55800;54.272;18.558;2024-03-07T03:39:23;102309.56;;;-1.70;75.15
68807;BME280;55800;54.272;18.558;2024-03-07T03:41:52;102312.94;;;-1.73;75.16
68807;BME280;55800;54.272;18.558;2024-03-07T03:44:22;102312.94;;;-1.73;75.12
68807;BME280;55800;54.272;18.558;2024-03-07T03:46:51;102312.00;;;-1.75;75.22
68807;BME280;55800;54.272;18.558;2024-03-07T03:49:21;102318.97;;;-1.75;75.33
68807;BME280;55800;54.272;18.558;2024-03-07T03:51:50;102321.56;;;-1.77;76.04
68807;BME280;55800;54.272;18.558;2024-03-07T03:54:21;102311.88;;;-1.78;75.47
68807;BME280;55800;54.272;18.558;2024-03-07T03:56:51;102314.50;;;-1.78;75.25
68807;BME280;55800;54.272;18.558;2024-03-07T03:59:21;102314.47;;;-1.79;75.03
68807;BME280;55800;54.272;18.558;2024-03-07T04:01:50;102319.72;;;-1.79;74.93
68807;BME280;55800;54.272;18.558;2024-03-07T04:04:20;102321.44;;;-1.80;75.71
68807;BME280;55800;54.272;18.558;2024-03-07T04:06:49;102312.63;;;-1.82;76.17
68807;BME280;55800;54.272;18.558;2024-03-07T04:09:19;102321.38;;;-1.81;75.20
68807;BME280;55800;54.272;18.558;2024-03-07T04:11:50;102327.44;;;-1.82;76.36
68807;BME280;55800;54.272;18.558;2024-03-07T04:14:20;102320.50;;;-1.82;75.66
68807;BME280;55800;54.272;18.558;2024-03-07T04:16:49;102319.59;;;-1.82;75.34
68807;BME280;55800;54.272;18.558;2024-03-07T04:19:19;102319.59;;;-1.82;75.40
68807;BME280;55800;54.272;18.558;2024-03-07T04:21:48;102323.06;;;-1.83;75.71
68807;BME280;55800;54.272;18.558;2024-03-07T04:24:18;102315.16;;;-1.85;75.63
68807;BME280;55800;54.272;18.558;2024-03-07T04:26:48;102313.34;;;-1.86;76.64
68807;BME280;55800;54.272;18.558;2024-03-07T04:29:18;102314.25;;;-1.85;75.27
68807;BME280;55800;54.272;18.558;2024-03-07T04:31:47;102311.59;;;-1.87;75.37
68807;BME280;55800;54.272;18.558;2024-03-07T04:34:18;102315.94;;;-1.87;75.47
68807;BME280;55800;54.272;18.558;2024-03-07T04:36:47;102312.41;;;-1.88;75.83
68807;BME280;55800;54.272;18.558;2024-03-07T04:39:17;102311.47;;;-1.90;75.72
68807;BME280;55800;54.272;18.558;2024-03-07T04:41:57;102319.38;;;-1.88;75.22
68807;BME280;55800;54.272;18.558;2024-03-07T04:44:29;102316.72;;;-1.90;75.21
68807;BME280;55800;54.272;18.558;2024-03-07T04:46:59;102311.47;;;-1.90;76.21
68807;BME280;55800;54.272;18.558;2024-03-07T04:49:30;102319.34;;;-1.90;76.09
68807;BME280;55800;54.272;18.558;2024-03-07T04:52:01;102329.78;;;-1.91;75.67
68807;BME280;55800;54.272;18.558;2024-03-07T04:54:32;102318.38;;;-1.92;75.30
68807;BME280;55800;54.272;18.558;2024-03-07T04:57:04;102322.69;;;-1.94;75.17
68807;BME280;55800;54.272;18.558;2024-03-07T04:59:33;102327.97;;;-1.92;75.40
68807;BME280;55800;54.272;18.558;2024-03-07T05:02:03;102326.13;;;-1.95;76.70
68807;BME280;55800;54.272;18.558;2024-03-07T05:04:33;102328.75;;;-1.95;76.48
68807;BME280;55800;54.272;18.558;2024-03-07T05:07:04;102327.94;;;-1.94;75.89
68807;BME280;55800;54.272;18.558;2024-03-07T05:09:33;102327.88;;;-1.95;75.48
68807;BME280;55800;54.272;18.558;2024-03-07T05:12:05;102326.09;;;-1.96;75.41
68807;BME280;55800;54.272;18.558;2024-03-07T05:14:34;102340.09;;;-1.96;76.46
68807;BME280;55800;54.272;18.558;2024-03-07T05:17:04;102328.66;;;-1.98;75.93
68807;BME280;55800;54.272;18.558;2024-03-07T05:19:37;102344.38;;;-1.98;76.27
68807;BME280;55800;54.272;18.558;2024-03-07T05:22:06;102353.97;;;-1.98;76.41
68807;BME280;55800;54.272;18.558;2024-03-07T05:24:42;102339.13;;;-1.98;75.77
68807;BME280;55800;54.272;18.558;2024-03-07T05:27:14;102343.47;;;-1.98;77.97
68807;BME280;55800;54.272;18.558;2024-03-07T05:29:44;102349.50;;;-2.01;76.72
68807;BME280;55800;54.272;18.558;2024-03-07T05:32:21;102340.81;;;-2.00;77.59
68807;BME280;55800;54.272;18.558;2024-03-07T05:34:52;102339.97;;;-1.99;77.26
68807;BME280;55800;54.272;18.558;2024-03-07T05:37:22;102336.44;;;-1.99;77.80
68807;BME280;55800;54.272;18.558;2024-03-07T05:39:53;102336.41;;;-2.01;77.31
68807;BME280;55800;54.272;18.558;2024-03-07T05:42:23;102343.44;;;-2.00;77.70
68807;BME280;55800;54.272;18.558;2024-03-07T05:44:53;102339.97;;;-1.99;77.03
68807;BME280;55800;54.272;18.558;2024-03-07T05:47:23;102339.13;;;-1.98;76.95
68807;BME280;55800;54.272;18.558;2024-03-07T05:49:52;102339.97;;;-1.99;76.83
68807;BME280;55800;54.272;18.558;2024-03-07T05:52:22;102339.13;;;-1.98;76.27
68807;BME280;55800;54.272;18.558;2024-03-07T05:54:51;102343.53;;;-1.97;76.91
68807;BME280;55800;54.272;18.558;2024-03-07T05:57:22;102334.84;;;-1.96;76.83
68807;BME280;55800;54.272;18.558;2024-03-07T05:59:52;102328.75;;;-1.95;77.15
68807;BME280;55800;54.272;18.558;2024-03-07T06:02:22;102336.78;;;-1.90;78.54
68807;BME280;55800;54.272;18.558;2024-03-07T06:04:51;102338.59;;;-1.89;78.58
68807;BME280;55800;54.272;18.558;2024-03-07T06:07:20;102332.44;;;-1.90;77.11
68807;BME280;55800;54.272;18.558;2024-03-07T06:09:50;102334.28;;;-1.87;77.90
68807;BME280;55800;54.272;18.558;2024-03-07T06:12:20;102334.31;;;-1.86;77.82
68807;BME280;55800;54.272;18.558;2024-03-07T06:14:56;102330.88;;;-1.85;77.06
68807;BME280;55800;54.272;18.558;2024-03-07T06:17:26;102336.22;;;-1.82;77.58
68807;BME280;55800;54.272;18.558;2024-03-07T06:19:56;102336.34;;;-1.79;77.35
68807;BME280;55800;54.272;18.558;2024-03-07T06:22:27;102336.50;;;-1.74;78.89
68807;BME280;55800;54.272;18.558;2024-03-07T06:24:57;102333.16;;;-1.70;78.23
68807;BME280;55800;54.272;18.558;2024-03-07T06:27:32;102341.09;;;-1.67;78.07
68807;BME280;55800;54.272;18.558;2024-03-07T06:30:08;102338.56;;;-1.66;78.30
68807;BME280;55800;54.272;18.558;2024-03-07T06:32:38;102343.88;;;-1.63;78.16
68807;BME280;55800;54.272;18.558;2024-03-07T06:35:08;102344.00;;;-1.60;78.05
68807;BME280;55800;54.272;18.558;2024-03-07T06:37:38;102334.72;;;-1.50;79.53
68807;BME280;55800;54.272;18.558;2024-03-07T06:40:09;102340.06;;;-1.47;78.21
68807;BME280;55800;54.272;18.558;2024-03-07T06:42:38;102339.38;;;-1.41;78.68
68807;BME280;55800;54.272;18.558;2024-03-07T06:45:10;102336.91;;;-1.37;78.27
68807;BME280;55800;54.272;18.558;2024-03-07T06:47:40;102339.72;;;-1.31;78.25
68807;BME280;55800;54.272;18.558;2024-03-07T06:50:10;102341.78;;;-1.22;78.48
68807;BME280;55800;54.272;18.558;2024-03-07T06:52:54;102337.75;;;-1.13;79.25
68807;BME280;55800;54.272;18.558;2024-03-07T06:55:23;102340.72;;;-1.02;79.26
68807;BME280;55800;54.272;18.558;2024-03-07T06:57:53;102341.84;;;-0.94;79.50
68807;BME280;55800;54.272;18.558;2024-03-07T07:00:24;102338.69;;;-0.83;79.79
68807;BME280;55800;54.272;18.558;2024-03-07T07:02:54;102343.34;;;-0.74;79.11
68807;BME280;55800;54.272;18.558;2024-03-07T07:05:26;102343.63;;;-0.65;79.24
68807;BME280;55800;54.272;18.558;2024-03-07T07:07:55;102336.88;;;-0.57;78.93
68807;BME280;55800;54.272;18.558;2024-03-07T07:10:25;102344.22;;;-0.47;78.97
68807;BME280;55800;54.272;18.558;2024-03-07T07:12:54;102343.63;;;-0.37;78.90
68807;BME280;55800;54.272;18.558;2024-03-07T07:15:25;102348.28;;;-0.28;78.91
68807;BME280;55800;54.272;18.558;2024-03-07T07:17:55;102345.97;;;-0.18;79.13
68807;BME280;55800;54.272;18.558;2024-03-07T07:20:25;102343.59;;;-0.09;79.23
68807;BME280;55800;54.272;18.558;2024-03-07T07:22:55;102342.97;;;0.00;79.25
68807;BME280;55800;54.272;18.558;2024-03-07T07:25:29;102346.78;;;0.11;79.92
68807;BME280;55800;54.272;18.558;2024-03-07T07:27:58;102347.88;;;0.19;80.12
68807;BME280;55800;54.272;18.558;2024-03-07T07:30:29;102343.75;;;0.29;79.53
68807;BME280;55800;54.272;18.558;2024-03-07T07:32:59;102337.00;;;0.38;79.93
68807;BME280;55800;54.272;18.558;2024-03-07T07:35:29;102344.44;;;0.53;81.78
68807;BME280;55800;54.272;18.558;2024-03-07T07:37:59;102347.28;;;0.62;81.80
68807;BME280;55800;54.272;18.558;2024-03-07T07:40:28;102344.06;;;0.72;81.11
68807;BME280;55800;54.272;18.558;2024-03-07T07:42:59;102339.00;;;0.81;81.36
68807;BME280;55800;54.272;18.558;2024-03-07T07:45:31;102345.41;;;0.91;80.68
68807;BME280;55800;54.272;18.558;2024-03-07T07:48:05;102336.84;;;0.99;81.00
68807;BME280;55800;54.272;18.558;2024-03-07T07:50:34;102341.47;;;1.09;80.98
68807;BME280;55800;54.272;18.558;2024-03-07T07:53:04;102338.19;;;1.19;81.76
68807;BME280;55800;54.272;18.558;2024-03-07T07:55:37;102344.50;;;1.27;81.36
68807;BME280;55800;54.272;18.558;2024-03-07T07:58:07;102344.75;;;1.36;81.49
68807;BME280;55800;54.272;18.558;2024-03-07T08:00:37;102347.59;;;1.45;81.55
68807;BME280;55800;54.272;18.558;2024-03-07T08:03:08;102345.09;;;1.51;80.78
68807;BME280;55800;54.272;18.558;2024-03-07T08:05:39;102334.75;;;1.61;81.49
68807;BME280;55800;54.272;18.558;2024-03-07T08:08:09;102342.81;;;1.68;81.50
68807;BME280;55800;54.272;18.558;2024-03-07T08:10:42;102351.81;;;1.78;81.36
68807;BME280;55800;54.272;18.558;2024-03-07T08:13:14;102344.97;;;1.86;81.01
68807;BME280;55800;54.272;18.558;2024-03-07T08:15:46;102356.56;;;1.94;80.88
68807;BME280;55800;54.272;18.558;2024-03-07T08:18:15;102352.28;;;2.00;81.21
68807;BME280;55800;54.272;18.558;2024-03-07T08:20:45;102345.41;;;2.07;81.13
68807;BME280;55800;54.272;18.558;2024-03-07T08:23:15;102349.06;;;2.15;81.22
68807;BME280;55800;54.272;18.558;2024-03-07T08:25:44;102359.78;;;2.22;81.29
68807;BME280;55800;54.272;18.558;2024-03-07T08:28:14;102353.75;;;2.29;81.24
68807;BME280;55800;54.272;18.558;2024-03-07T08:30:46;102363.59;;;2.36;81.11
68807;BME280;55800;54.272;18.558;2024-03-07T08:33:15;102363.72;;;2.44;81.35
68807;BME280;55800;54.272;18.558;2024-03-07T08:35:45;102352.41;;;2.50;80.87
68807;BME280;55800;54.272;18.558;2024-03-07T08:38:14;102356.88;;;2.55;80.78
68807;BME280;55800;54.272;18.558;2024-03-07T08:40:44;102357.03;;;2.63;80.67
68807;BME280;55800;54.272;18.558;2024-03-07T08:43:14;102361.53;;;2.68;80.69
68807;BME280;55800;54.272;18.558;2024-03-07T08:45:42;102358.09;;;2.74;80.32
68807;BME280;55800;54.272;18.558;2024-03-07T08:48:13;102367.88;;;2.78;80.41
68807;BME280;55800;54.272;18.558;2024-03-07T08:50:43;102360.91;;;2.83;80.26
68807;BME280;55800;54.272;18.558;2024-03-07T08:53:12;102356.59;;;2.88;80.24
68807;BME280;55800;54.272;18.558;2024-03-07T08:55:42;102351.41;;;2.92;80.23
68807;BME280;55800;54.272;18.558;2024-03-07T08:58:11;102355.88;;;2.98;80.31
68807;BME280;55800;54.272;18.558;2024-03-07T09:00:41;102357.78;;;3.06;79.67
68807;BME280;55800;54.272;18.558;2024-03-07T09:03:14;102360.50;;;3.09;80.03
68807;BME280;55800;54.272;18.558;2024-03-07T09:05:47;102353.50;;;3.14;79.90
68807;BME280;55800;54.272;18.558;2024-03-07T09:08:16;102355.41;;;3.22;79.55
68807;BME280;55800;54.272;18.558;2024-03-07T09:10:46;102355.44;;;3.25;79.86
68807;BME280;55800;54.272;18.558;2024-03-07T09:13:18;102356.41;;;3.30;79.79
68807;BME280;55800;54.272;18.558;2024-03-07T09:15:48;102359.19;;;3.37;79.42
68807;BME280;55800;54.272;18.558;2024-03-07T09:18:18;102354.81;;;3.41;79.29
68807;BME280;55800;54.272;18.558;2024-03-07T09:20:48;102353.09;;;3.46;79.44
68807;BME280;55800;54.272;18.558;2024-03-07T09:23:18;102357.59;;;3.50;79.76
68807;BME280;55800;54.272;18.558;2024-03-07T09:25:47;102352.34;;;3.54;79.76
68807;BME280;55800;54.272;18.558;2024-03-07T09:28:17;102347.19;;;3.60;79.90
68807;BME280;55800;54.272;18.558;2024-03-07T09:30:46;102348.16;;;3.67;79.55
68807;BME280;55800;54.272;18.558;2024-03-07T09:33:18;102355.28;;;3.74;79.01
68807;BME280;55800;54.272;18.558;2024-03-07T09:35:49;102355.34;;;3.77;79.10
68807;BME280;55800;54.272;18.558;2024-03-07T09:38:18;102354.50;;;3.81;78.76
68807;BME280;55800;54.272;18.558;2024-03-07T09:40:48;102344.84;;;3.86;79.29
68807;BME280;55800;54.272;18.558;2024-03-07T09:43:18;102344.97;;;3.92;78.58
68807;BME280;55800;54.272;18.558;2024-03-07T09:45:48;102345.88;;;3.97;78.76
68807;BME280;55800;54.272;18.558;2024-03-07T09:48:20;102347.69;;;4.01;78.74
68807;BME280;55800;54.272;18.558;2024-03-07T09:50:51;102353.94;;;4.06;78.37
68807;BME280;55800;54.272;18.558;2024-03-07T09:53:21;102355.75;;;4.10;78.86
68807;BME280;55800;54.272;18.558;2024-03-07T09:55:54;102361.09;;;4.13;78.74
68807;BME280;55800;54.272;18.558;2024-03-07T09:58:26;102354.09;;;4.18;78.51
68807;BME280;55800;54.272;18.558;2024-03-07T10:01:01;102352.38;;;4.22;78.75
68807;BME280;55800;54.272;18.558;2024-03-07T10:03:34;102352.44;;;4.29;79.35
68807;BME280;55800;54.272;18.558;2024-03-07T10:06:05;102350.75;;;4.34;79.11
68807;BME280;55800;54.272;18.558;2024-03-07T10:08:34;102349.03;;;4.39;78.20
68807;BME280;55800;54.272;18.558;2024-03-07T10:11:05;102355.22;;;4.41;78.01
68807;BME280;55800;54.272;18.558;2024-03-07T10:13:36;102357.91;;;4.44;77.78
68807;BME280;55800;54.272;18.558;2024-03-07T10:16:05;102350.94;;;4.49;77.62
68807;BME280;55800;54.272;18.558;2024-03-07T10:18:42;102349.13;;;4.50;78.35
68807;BME280;55800;54.272;18.558;2024-03-07T10:21:13;102355.38;;;4.55;77.91
68807;BME280;55800;54.272;18.558;2024-03-07T10:23:46;102346.59;;;4.60;77.72
68807;BME280;55800;54.272;18.558;2024-03-07T10:26:16;102346.66;;;4.65;77.57
68807;BME280;55800;54.272;18.558;2024-03-07T10:28:45;102353.75;;;4.69;78.13
68807;BME280;55800;54.272;18.558;2024-03-07T10:31:28;102347.63;;;4.74;78.54
68807;BME280;55800;54.272;18.558;2024-03-07T10:34:02;102344.13;;;4.79;78.75
68807;BME280;55800;54.272;18.558;2024-03-07T10:36:32;102340.63;;;4.83;78.43
68807;BME280;55800;54.272;18.558;2024-03-07T10:39:01;102348.63;;;4.86;78.46
68807;BME280;55800;54.272;18.558;2024-03-07T10:41:45;102338.03;;;4.90;78.01
68807;BME280;55800;54.272;18.558;2024-03-07T10:44:19;102338.97;;;4.94;78.22
68807;BME280;55800;54.272;18.558;2024-03-07T10:46:53;102345.19;;;4.97;77.07
68807;BME280;55800;54.272;18.558;2024-03-07T10:49:27;102336.38;;;5.00;77.02
68807;BME280;55800;54.272;18.558;2024-03-07T10:52:02;102342.56;;;5.03;77.09
68807;BME280;55800;54.272;18.558;2024-03-07T10:54:39;102345.28;;;5.08;78.13
68807;BME280;55800;54.272;18.558;2024-03-07T10:57:23;102329.38;;;5.09;78.03
68807;BME280;55800;54.272;18.558;2024-03-07T10:59:57;102335.59;;;5.13;77.48
68807;BME280;55800;54.272;18.558;2024-03-07T11:02:46;102328.53;;;5.15;77.20
68807;BME280;55800;54.272;18.558;2024-03-07T11:05:18;102331.19;;;5.16;78.44
68807;BME280;55800;54.272;18.558;2024-03-07T11:07:48;102330.34;;;5.19;76.66
68807;BME280;55800;54.272;18.558;2024-03-07T11:10:18;102339.19;;;5.21;77.15
68807;BME280;55800;54.272;18.558;2024-03-07T11:12:49;102327.72;;;5.26;77.75
68807;BME280;55800;54.272;18.558;2024-03-07T11:15:19;102327.75;;;5.31;78.25
68807;BME280;55800;54.272;18.558;2024-03-07T11:17:51;102315.41;;;5.33;77.63
68807;BME280;55800;54.272;18.558;2024-03-07T11:20:24;102319.84;;;5.37;77.89
68807;BME280;55800;54.272;18.558;2024-03-07T11:22:54;102323.38;;;5.39;78.21
68807;BME280;55800;54.272;18.558;2024-03-07T11:25:23;102322.53;;;5.40;77.95
68807;BME280;55800;54.272;18.558;2024-03-07T11:27:57;102317.22;;;5.43;77.93
68807;BME280;55800;54.272;18.558;2024-03-07T11:30:27;102319.03;;;5.47;77.96
68807;BME280;55800;54.272;18.558;2024-03-07T11:32:56;102321.69;;;5.47;77.15
68807;BME280;55800;54.272;18.558;2024-03-07T11:35:33;102308.44;;;5.50;77.35
68807;BME280;55800;54.272;18.558;2024-03-07T11:38:07;102304.91;;;5.52;76.90
68807;BME280;55800;54.272;18.558;2024-03-07T11:40:46;102308.47;;;5.56;76.84
68807;BME280;55800;54.272;18.558;2024-03-07T11:43:18;102305.84;;;5.58;77.40
68807;BME280;55800;54.272;18.558;2024-03-07T11:45:48;102303.22;;;5.64;76.97
68807;BME280;55800;54.272;18.558;2024-03-07T11:48:21;102299.69;;;5.66;77.41
68807;BME280;55800;54.272;18.558;2024-03-07T11:50:52;102309.44;;;5.70;77.29
68807;BME280;55800;54.272;18.558;2024-03-07T11:53:23;102300.59;;;5.71;77.74
68807;BME280;55800;54.272;18.558;2024-03-07T11:55:52;102297.06;;;5.75;77.55
68807;BME280;55800;54.272;18.558;2024-03-07T11:58:22;102290.84;;;5.75;77.29
68807;BME280;55800;54.272;18.558;2024-03-07T12:00:52;102290.00;;;5.76;77.36
68807;BME280;55800;54.272;18.558;2024-03-07T12:03:22;102293.53;;;5.79;77.36
68807;BME280;55800;54.272;18.558;2024-03-07T12:05:55;102293.56;;;5.82;76.84
68807;BME280;55800;54.272;18.558;2024-03-07T12:08:25;102288.31;;;5.85;76.55
68807;BME280;55800;54.272;18.558;2024-03-07T12:10:56;102290.06;;;5.86;77.09
68807;BME280;55800;54.272;18.558;2024-03-07T12:13:26;102292.72;;;5.88;77.45
68807;BME280;55800;54.272;18.558;2024-03-07T12:15:56;102280.34;;;5.88;77.54
68807;BME280;55800;54.272;18.558;2024-03-07T12:18:27;102280.38;;;5.91;77.88
68807;BME280;55800;54.272;18.558;2024-03-07T12:20:58;102278.59;;;5.93;77.17
68807;BME280;55800;54.272;18.558;2024-03-07T12:23:31;102278.59;;;5.96;76.91
68807;BME280;55800;54.272;18.558;2024-03-07T12:26:02;102280.38;;;5.97;77.37
68807;BME280;55800;54.272;18.558;2024-03-07T12:28:33;102275.06;;;5.99;76.74
68807;BME280;55800;54.272;18.558;2024-03-07T12:31:03;102274.19;;;6.03;76.88
68807;BME280;55800;54.272;18.558;2024-03-07T12:33:44;102279.50;;;6.04;76.60
68807;BME280;55800;54.272;18.558;2024-03-07T12:36:21;102279.53;;;6.07;77.16
68807;BME280;55800;54.272;18.558;2024-03-07T12:39:01;102271.59;;;6.10;77.14
68807;BME280;55800;54.272;18.558;2024-03-07T12:41:37;102273.34;;;6.11;76.57
68807;BME280;55800;54.272;18.558;2024-03-07T12:44:08;102269.81;;;6.14;76.63
68807;BME280;55800;54.272;18.558;2024-03-07T12:46:41;102274.25;;;6.16;77.68
68807;BME280;55800;54.272;18.558;2024-03-07T12:49:14;102273.38;;;6.19;76.61
68807;BME280;55800;54.272;18.558;2024-03-07T12:51:45;102267.19;;;6.24;76.31
68807;BME280;55800;54.272;18.558;2024-03-07T12:54:15;102259.22;;;6.24;77.20
68807;BME280;55800;54.272;18.558;2024-03-07T12:56:44;102265.41;;;6.26;77.20
68807;BME280;55800;54.272;18.558;2024-03-07T12:59:13;102261.88;;;6.27;77.18
68807;BME280;55800;54.272;18.558;2024-03-07T13:01:43;102266.31;;;6.32;77.43
68807;BME280;55800;54.272;18.558;2024-03-07T13:04:15;102265.41;;;6.34;77.48
68807;BME280;55800;54.272;18.558;2024-03-07T13:06:46;102264.56;;;6.38;77.97
68807;BME280;55800;54.272;18.558;2024-03-07T13:09:15;102259.22;;;6.40;77.61